sensor_id;sensor_type;location;lat;lon;timestamp;P1;durP1;ratioP1;P2;durP2;ratioP2
13335;SDS011;6737;51.480;11.962;2023-10-13T00:00:37;15.73;;;10.18;;
13335;SDS011;6737;51.480;11.962;2023-10-13T00:03:07;14.38;;;10.18;;
13335;SDS011;6737;51.480;11.962;2023-10-13T00:05:40;18.73;;;10.20;;
13335;SDS011;6737;51.480;11.962;2023-10-13T00:08:08;13.10;;;9.77;;
13335;SDS011;6737;51.480;11.962;2023-10-13T00:10:35;17.48;;;9.93;;
13335;SDS011;6737;51.480;11.962;2023-10-13T00:13:01;17.35;;;10.27;;
13335;SDS011;6737;51.480;11.962;2023-10-13T00:15:40;15.57;;;10.35;;
13335;SDS011;6737;51.480;11.962;2023-10-13T00:18:27;17.25;;;10.77;;
13335;SDS011;6737;51.480;11.962;2023-10-13T00:21:07;15.90;;;10.65;;
13335;SDS011;6737;51.480;11.962;2023-10-13T00:23:45;17.88;;;9.75;;
13335;SDS011;6737;51.480;11.962;2023-10-13T00:26:18;17.10;;;9.65;;
13335;SDS011;6737;51.480;11.962;2023-10-13T00:28:48;15.38;;;9.85;;
13335;SDS011;6737;51.480;11.962;2023-10-13T00:31:24;13.18;;;9.70;;
13335;SDS011;6737;51.480;11.962;2023-10-13T00:34:01;12.20;;;9.68;;
13335;SDS011;6737;51.480;11.962;2023-10-13T00:36:36;12.32;;;9.73;;
13335;SDS011;6737;51.480;11.962;2023-10-13T00:39:02;14.23;;;10.07;;
13335;SDS011;6737;51.480;11.962;2023-10-13T00:41:32;16.58;;;10.18;;
13335;SDS011;6737;51.480;11.962;2023-10-13T00:44:18;13.60;;;9.55;;
13335;SDS011;6737;51.480;11.962;2023-10-13T00:46:53;14.65;;;9.60;;
13335;SDS011;6737;51.480;11.962;2023-10-13T00:49:22;15.35;;;10.25;;
13335;SDS011;6737;51.480;11.962;2023-10-13T00:51:49;13.23;;;9.75;;
13335;SDS011;6737;51.480;11.962;2023-10-13T00:54:16;15.82;;;10.18;;
13335;SDS011;6737;51.480;11.962;2023-10-13T00:56:44;18.10;;;11.57;;
13335;SDS011;6737;51.480;11.962;2023-10-13T00:59:22;15.57;;;10.35;;
13335;SDS011;6737;51.480;11.962;2023-10-13T01:01:51;16.80;;;10.77;;
13335;SDS011;6737;51.480;11.962;2023-10-13T01:04:21;18.50;;;11.18;;
13335;SDS011;6737;51.480;11.962;2023-10-13T01:06:53;15.13;;;10.73;;
13335;SDS011;6737;51.480;11.962;2023-10-13T01:09:19;15.43;;;10.90;;
13335;SDS011;6737;51.480;11.962;2023-10-13T01:11:46;16.13;;;11.23;;
13335;SDS011;6737;51.480;11.962;2023-10-13T01:14:17;12.57;;;10.77;;
13335;SDS011;6737;51.480;11.962;2023-10-13T01:16:46;15.15;;;10.25;;
13335;SDS011;6737;51.480;11.962;2023-10-13T01:19:16;14.00;;;10.05;;
13335;SDS011;6737;51.480;11.962;2023-10-13T01:21:45;18.65;;;10.75;;
13335;SDS011;6737;51.480;11.962;2023-10-13T01:24:14;15.07;;;10.45;;
13335;SDS011;6737;51.480;11.962;2023-10-13T01:26:43;14.30;;;10.07;;
13335;SDS011;6737;51.480;11.962;2023-10-13T01:29:09;14.93;;;9.95;;
13335;SDS011;6737;51.480;11.962;2023-10-13T01:31:39;16.45;;;10.48;;
13335;SDS011;6737;51.480;11.962;2023-10-13T01:34:11;15.15;;;10.38;;
13335;SDS011;6737;51.480;11.962;2023-10-13T01:36:38;15.23;;;10.02;;
13335;SDS011;6737;51.480;11.962;2023-10-13T01:39:07;14.10;;;10.40;;
13335;SDS011;6737;51.480;11.962;2023-10-13T01:41:36;15.52;;;10.00;;
13335;SDS011;6737;51.480;11.962;2023-10-13T01:44:04;15.48;;;9.57;;
13335;SDS011;6737;51.480;11.962;2023-10-13T01:46:30;11.30;;;9.55;;
13335;SDS011;6737;51.480;11.962;2023-10-13T01:48:56;15.80;;;9.80;;
13335;SDS011;6737;51.480;11.962;2023-10-13T01:51:22;10.68;;;8.80;;
13335;SDS011;6737;51.480;11.962;2023-10-13T01:53:48;12.93;;;9.60;;
13335;SDS011;6737;51.480;11.962;2023-10-13T01:56:21;14.90;;;9.52;;
13335;SDS011;6737;51.480;11.962;2023-10-13T01:58:48;14.77;;;9.40;;
13335;SDS011;6737;51.480;11.962;2023-10-13T02:01:14;13.07;;;9.52;;
13335;SDS011;6737;51.480;11.962;2023-10-13T02:03:52;12.48;;;9.63;;
13335;SDS011;6737;51.480;11.962;2023-10-13T02:06:32;14.95;;;9.90;;
13335;SDS011;6737;51.480;11.962;2023-10-13T02:09:05;15.18;;;9.90;;
13335;SDS011;6737;51.480;11.962;2023-10-13T02:11:38;14.30;;;9.27;;
13335;SDS011;6737;51.480;11.962;2023-10-13T02:14:05;13.70;;;9.07;;
13335;SDS011;6737;51.480;11.962;2023-10-13T02:16:31;12.95;;;9.25;;
13335;SDS011;6737;51.480;11.962;2023-10-13T02:18:57;13.32;;;9.57;;
13335;SDS011;6737;51.480;11.962;2023-10-13T02:21:29;11.77;;;9.02;;
13335;SDS011;6737;51.480;11.962;2023-10-13T02:23:57;14.05;;;8.90;;
13335;SDS011;6737;51.480;11.962;2023-10-13T02:26:31;14.13;;;8.55;;
13335;SDS011;6737;51.480;11.962;2023-10-13T02:28:57;12.45;;;9.18;;
13335;SDS011;6737;51.480;11.962;2023-10-13T02:31:27;11.88;;;8.93;;
13335;SDS011;6737;51.480;11.962;2023-10-13T02:33:53;11.32;;;8.45;;
13335;SDS011;6737;51.480;11.962;2023-10-13T02:36:19;10.55;;;8.30;;
13335;SDS011;6737;51.480;11.962;2023-10-13T02:39:04;10.65;;;7.53;;
13335;SDS011;6737;51.480;11.962;2023-10-13T02:41:36;10.43;;;8.30;;
13335;SDS011;6737;51.480;11.962;2023-10-13T02:44:05;11.32;;;8.02;;
13335;SDS011;6737;51.480;11.962;2023-10-13T02:46:32;12.35;;;8.63;;
13335;SDS011;6737;51.480;11.962;2023-10-13T02:49:01;12.85;;;8.60;;
13335;SDS011;6737;51.480;11.962;2023-10-13T02:51:36;11.90;;;7.78;;
13335;SDS011;6737;51.480;11.962;2023-10-13T02:54:05;15.52;;;8.02;;
13335;SDS011;6737;51.480;11.962;2023-10-13T02:56:43;8.30;;;7.10;;
13335;SDS011;6737;51.480;11.962;2023-10-13T02:59:15;10.00;;;7.57;;
13335;SDS011;6737;51.480;11.962;2023-10-13T03:01:44;9.30;;;6.95;;
13335;SDS011;6737;51.480;11.962;2023-10-13T03:04:10;11.48;;;7.18;;
13335;SDS011;6737;51.480;11.962;2023-10-13T03:06:38;10.98;;;7.50;;
13335;SDS011;6737;51.480;11.962;2023-10-13T03:09:07;12.13;;;7.35;;
13335;SDS011;6737;51.480;11.962;2023-10-13T03:11:42;11.13;;;7.22;;
13335;SDS011;6737;51.480;11.962;2023-10-13T03:17:00;12.32;;;7.45;;
13335;SDS011;6737;51.480;11.962;2023-10-13T03:19:34;11.30;;;7.55;;
13335;SDS011;6737;51.480;11.962;2023-10-13T03:22:05;12.20;;;7.68;;
13335;SDS011;6737;51.480;11.962;2023-10-13T03:24:38;10.43;;;7.25;;
13335;SDS011;6737;51.480;11.962;2023-10-13T03:27:12;9.45;;;6.80;;
13335;SDS011;6737;51.480;11.962;2023-10-13T03:29:48;9.40;;;7.22;;
13335;SDS011;6737;51.480;11.962;2023-10-13T03:32:21;11.95;;;7.75;;
13335;SDS011;6737;51.480;11.962;2023-10-13T03:34:51;9.98;;;6.88;;
13335;SDS011;6737;51.480;11.962;2023-10-13T03:37:17;10.07;;;7.15;;
13335;SDS011;6737;51.480;11.962;2023-10-13T03:39:47;7.90;;;7.03;;
13335;SDS011;6737;51.480;11.962;2023-10-13T03:42:13;10.15;;;7.32;;
13335;SDS011;6737;51.480;11.962;2023-10-13T03:44:45;9.45;;;7.35;;
13335;SDS011;6737;51.480;11.962;2023-10-13T03:47:14;11.05;;;8.07;;
13335;SDS011;6737;51.480;11.962;2023-10-13T03:49:54;11.98;;;7.65;;
13335;SDS011;6737;51.480;11.962;2023-10-13T03:52:39;9.48;;;7.30;;
13335;SDS011;6737;51.480;11.962;2023-10-13T03:55:06;10.23;;;7.57;;
13335;SDS011;6737;51.480;11.962;2023-10-13T03:57:32;10.57;;;7.55;;
13335;SDS011;6737;51.480;11.962;2023-10-13T03:59:59;11.32;;;7.45;;
13335;SDS011;6737;51.480;11.962;2023-10-13T04:02:33;11.00;;;8.30;;
13335;SDS011;6737;51.480;11.962;2023-10-13T04:04:59;12.02;;;7.75;;
13335;SDS011;6737;51.480;11.962;2023-10-13T04:07:32;11.27;;;7.57;;
13335;SDS011;6737;51.480;11.962;2023-10-13T04:10:06;10.75;;;7.45;;
13335;SDS011;6737;51.480;11.962;2023-10-13T04:12:55;10.73;;;7.82;;
13335;SDS011;6737;51.480;11.962;2023-10-13T04:15:57;12.95;;;8.07;;
13335;SDS011;6737;51.480;11.962;2023-10-13T04:18:41;9.85;;;7.75;;
13335;SDS011;6737;51.480;11.962;2023-10-13T04:21:19;9.50;;;8.15;;
13335;SDS011;6737;51.480;11.962;2023-10-13T04:24:07;12.50;;;8.20;;
13335;SDS011;6737;51.480;11.962;2023-10-13T04:26:44;10.70;;;8.73;;
13335;SDS011;6737;51.480;11.962;2023-10-13T04:29:29;12.25;;;8.20;;
13335;SDS011;6737;51.480;11.962;2023-10-13T04:32:13;11.68;;;9.35;;
13335;SDS011;6737;51.480;11.962;2023-10-13T04:34:41;13.68;;;8.80;;
13335;SDS011;6737;51.480;11.962;2023-10-13T04:37:16;14.18;;;10.18;;
13335;SDS011;6737;51.480;11.962;2023-10-13T04:39:54;18.27;;;12.98;;
13335;SDS011;6737;51.480;11.962;2023-10-13T04:42:34;17.58;;;12.43;;
13335;SDS011;6737;51.480;11.962;2023-10-13T04:45:17;16.17;;;12.18;;
13335;SDS011;6737;51.480;11.962;2023-10-13T04:48:04;17.45;;;12.00;;
13335;SDS011;6737;51.480;11.962;2023-10-13T04:50:58;18.35;;;12.02;;
13335;SDS011;6737;51.480;11.962;2023-10-13T04:53:45;16.90;;;10.80;;
13335;SDS011;6737;51.480;11.962;2023-10-13T04:56:35;13.30;;;10.70;;
13335;SDS011;6737;51.480;11.962;2023-10-13T04:59:06;15.35;;;10.77;;
13335;SDS011;6737;51.480;11.962;2023-10-13T05:01:51;15.18;;;10.65;;
13335;SDS011;6737;51.480;11.962;2023-10-13T05:04:36;14.10;;;10.63;;
13335;SDS011;6737;51.480;11.962;2023-10-13T05:07:24;13.23;;;10.45;;
13335;SDS011;6737;51.480;11.962;2023-10-13T05:10:08;14.10;;;10.02;;
13335;SDS011;6737;51.480;11.962;2023-10-13T05:12:53;13.80;;;9.77;;
13335;SDS011;6737;51.480;11.962;2023-10-13T05:15:47;13.40;;;10.25;;
13335;SDS011;6737;51.480;11.962;2023-10-13T05:18:32;15.25;;;10.73;;
13335;SDS011;6737;51.480;11.962;2023-10-13T05:21:17;12.77;;;10.20;;
13335;SDS011;6737;51.480;11.962;2023-10-13T05:24:01;14.43;;;10.57;;
13335;SDS011;6737;51.480;11.962;2023-10-13T05:26:46;13.15;;;10.38;;
13335;SDS011;6737;51.480;11.962;2023-10-13T05:29:30;13.20;;;9.50;;
13335;SDS011;6737;51.480;11.962;2023-10-13T05:32:14;12.57;;;10.15;;
13335;SDS011;6737;51.480;11.962;2023-10-13T05:34:59;12.57;;;10.25;;
13335;SDS011;6737;51.480;11.962;2023-10-13T05:37:43;13.95;;;9.07;;
13335;SDS011;6737;51.480;11.962;2023-10-13T05:40:33;14.07;;;9.68;;
13335;SDS011;6737;51.480;11.962;2023-10-13T05:43:18;20.15;;;10.27;;
13335;SDS011;6737;51.480;11.962;2023-10-13T05:46:03;13.80;;;10.77;;
13335;SDS011;6737;51.480;11.962;2023-10-13T05:48:48;13.18;;;9.57;;
13335;SDS011;6737;51.480;11.962;2023-10-13T05:51:23;13.73;;;10.60;;
13335;SDS011;6737;51.480;11.962;2023-10-13T05:53:58;15.10;;;10.48;;
13335;SDS011;6737;51.480;11.962;2023-10-13T05:56:54;16.02;;;10.13;;
13335;SDS011;6737;51.480;11.962;2023-10-13T05:59:38;15.05;;;10.55;;
13335;SDS011;6737;51.480;11.962;2023-10-13T06:02:23;15.60;;;10.88;;
13335;SDS011;6737;51.480;11.962;2023-10-13T06:05:09;14.68;;;10.20;;
13335;SDS011;6737;51.480;11.962;2023-10-13T06:07:55;15.85;;;10.98;;
13335;SDS011;6737;51.480;11.962;2023-10-13T06:10:39;14.27;;;10.95;;
13335;SDS011;6737;51.480;11.962;2023-10-13T06:13:24;17.40;;;11.40;;
13335;SDS011;6737;51.480;11.962;2023-10-13T06:16:09;15.90;;;11.77;;
13335;SDS011;6737;51.480;11.962;2023-10-13T06:18:54;15.55;;;11.70;;
13335;SDS011;6737;51.480;11.962;2023-10-13T06:21:38;17.17;;;12.02;;
13335;SDS011;6737;51.480;11.962;2023-10-13T06:24:23;17.58;;;11.38;;
13335;SDS011;6737;51.480;11.962;2023-10-13T06:27:07;12.68;;;10.52;;
13335;SDS011;6737;51.480;11.962;2023-10-13T06:29:52;16.90;;;11.23;;
13335;SDS011;6737;51.480;11.962;2023-10-13T06:32:19;13.63;;;10.48;;
13335;SDS011;6737;51.480;11.962;2023-10-13T06:34:45;13.05;;;9.52;;
13335;SDS011;6737;51.480;11.962;2023-10-13T06:37:15;11.27;;;9.25;;
13335;SDS011;6737;51.480;11.962;2023-10-13T06:39:52;12.23;;;9.32;;
13335;SDS011;6737;51.480;11.962;2023-10-13T06:42:24;14.10;;;9.10;;
13335;SDS011;6737;51.480;11.962;2023-10-13T06:44:57;11.48;;;8.60;;
13335;SDS011;6737;51.480;11.962;2023-10-13T06:47:25;10.15;;;8.40;;
13335;SDS011;6737;51.480;11.962;2023-10-13T06:49:53;12.02;;;8.75;;
13335;SDS011;6737;51.480;11.962;2023-10-13T06:52:20;13.88;;;9.27;;
13335;SDS011;6737;51.480;11.962;2023-10-13T06:54:54;16.10;;;9.57;;
13335;SDS011;6737;51.480;11.962;2023-10-13T06:57:20;12.80;;;9.98;;
13335;SDS011;6737;51.480;11.962;2023-10-13T06:59:47;11.18;;;9.35;;
13335;SDS011;6737;51.480;11.962;2023-10-13T07:02:13;14.05;;;9.80;;
13335;SDS011;6737;51.480;11.962;2023-10-13T07:04:48;14.63;;;10.18;;
13335;SDS011;6737;51.480;11.962;2023-10-13T07:07:22;13.85;;;10.02;;
13335;SDS011;6737;51.480;11.962;2023-10-13T07:09:49;14.60;;;10.13;;
13335;SDS011;6737;51.480;11.962;2023-10-13T07:12:21;11.68;;;9.35;;
13335;SDS011;6737;51.480;11.962;2023-10-13T07:14:58;12.95;;;9.20;;
13335;SDS011;6737;51.480;11.962;2023-10-13T07:17:45;11.77;;;8.60;;
13335;SDS011;6737;51.480;11.962;2023-10-13T07:20:12;10.00;;;8.18;;
13335;SDS011;6737;51.480;11.962;2023-10-13T07:22:53;9.73;;;7.53;;
13335;SDS011;6737;51.480;11.962;2023-10-13T07:25:29;12.40;;;8.07;;
13335;SDS011;6737;51.480;11.962;2023-10-13T07:27:58;10.95;;;7.45;;
13335;SDS011;6737;51.480;11.962;2023-10-13T07:30:34;10.35;;;7.70;;
13335;SDS011;6737;51.480;11.962;2023-10-13T07:33:24;9.63;;;7.60;;
13335;SDS011;6737;51.480;11.962;2023-10-13T07:36:03;9.77;;;7.38;;
13335;SDS011;6737;51.480;11.962;2023-10-13T07:38:48;10.88;;;7.68;;
13335;SDS011;6737;51.480;11.962;2023-10-13T07:41:24;11.57;;;7.15;;
13335;SDS011;6737;51.480;11.962;2023-10-13T07:43:55;11.27;;;7.78;;
13335;SDS011;6737;51.480;11.962;2023-10-13T07:46:23;9.15;;;7.07;;
13335;SDS011;6737;51.480;11.962;2023-10-13T07:48:56;11.57;;;7.20;;
13335;SDS011;6737;51.480;11.962;2023-10-13T07:51:34;9.70;;;7.50;;
13335;SDS011;6737;51.480;11.962;2023-10-13T07:54:15;12.60;;;7.35;;
13335;SDS011;6737;51.480;11.962;2023-10-13T07:56:47;11.70;;;7.75;;
13335;SDS011;6737;51.480;11.962;2023-10-13T07:59:13;11.93;;;7.50;;
13335;SDS011;6737;51.480;11.962;2023-10-13T08:01:48;10.73;;;7.50;;
13335;SDS011;6737;51.480;11.962;2023-10-13T08:04:33;11.05;;;7.03;;
13335;SDS011;6737;51.480;11.962;2023-10-13T08:07:01;9.77;;;6.63;;
13335;SDS011;6737;51.480;11.962;2023-10-13T08:09:40;8.93;;;6.80;;
13335;SDS011;6737;51.480;11.962;2023-10-13T08:12:06;10.32;;;6.97;;
13335;SDS011;6737;51.480;11.962;2023-10-13T08:14:37;10.02;;;6.53;;
13335;SDS011;6737;51.480;11.962;2023-10-13T08:17:08;8.80;;;6.50;;
13335;SDS011;6737;51.480;11.962;2023-10-13T08:19:36;9.52;;;6.22;;
13335;SDS011;6737;51.480;11.962;2023-10-13T08:22:07;9.75;;;6.45;;
13335;SDS011;6737;51.480;11.962;2023-10-13T08:24:43;11.35;;;6.50;;
13335;SDS011;6737;51.480;11.962;2023-10-13T08:27:09;8.27;;;6.13;;
13335;SDS011;6737;51.480;11.962;2023-10-13T08:29:42;8.45;;;5.88;;
13335;SDS011;6737;51.480;11.962;2023-10-13T08:32:24;8.63;;;6.40;;
13335;SDS011;6737;51.480;11.962;2023-10-13T08:37:21;12.20;;;6.43;;
13335;SDS011;6737;51.480;11.962;2023-10-13T08:39:54;10.55;;;6.35;;
13335;SDS011;6737;51.480;11.962;2023-10-13T08:42:45;10.00;;;5.95;;
13335;SDS011;6737;51.480;11.962;2023-10-13T08:45:19;9.75;;;5.80;;
13335;SDS011;6737;51.480;11.962;2023-10-13T08:50:33;11.02;;;6.30;;
13335;SDS011;6737;51.480;11.962;2023-10-13T08:55:56;9.40;;;5.75;;
13335;SDS011;6737;51.480;11.962;2023-10-13T08:58:28;8.52;;;6.32;;
13335;SDS011;6737;51.480;11.962;2023-10-13T09:01:14;11.35;;;6.03;;
13335;SDS011;6737;51.480;11.962;2023-10-13T09:09:26;7.03;;;5.60;;
13335;SDS011;6737;51.480;11.962;2023-10-13T09:12:10;7.68;;;5.45;;
13335;SDS011;6737;51.480;11.962;2023-10-13T09:14:37;8.13;;;6.07;;
13335;SDS011;6737;51.480;11.962;2023-10-13T09:17:08;8.48;;;5.68;;
13335;SDS011;6737;51.480;11.962;2023-10-13T09:19:44;10.35;;;5.32;;
13335;SDS011;6737;51.480;11.962;2023-10-13T09:25:00;8.68;;;5.95;;
13335;SDS011;6737;51.480;11.962;2023-10-13T09:27:31;10.90;;;6.10;;
13335;SDS011;6737;51.480;11.962;2023-10-13T09:29:59;10.48;;;5.75;;
13335;SDS011;6737;51.480;11.962;2023-10-13T09:33:02;8.60;;;5.25;;
13335;SDS011;6737;51.480;11.962;2023-10-13T09:35:33;8.63;;;6.03;;
13335;SDS011;6737;51.480;11.962;2023-10-13T09:38:02;9.40;;;5.80;;
13335;SDS011;6737;51.480;11.962;2023-10-13T09:40:29;9.15;;;6.35;;
13335;SDS011;6737;51.480;11.962;2023-10-13T09:42:59;10.23;;;5.72;;
13335;SDS011;6737;51.480;11.962;2023-10-13T09:45:31;12.25;;;6.28;;
13335;SDS011;6737;51.480;11.962;2023-10-13T09:48:02;9.30;;;6.43;;
13335;SDS011;6737;51.480;11.962;2023-10-13T09:50:42;10.85;;;6.43;;
13335;SDS011;6737;51.480;11.962;2023-10-13T09:53:11;11.25;;;5.80;;
13335;SDS011;6737;51.480;11.962;2023-10-13T09:55:43;13.68;;;6.20;;
13335;SDS011;6737;51.480;11.962;2023-10-13T09:58:13;9.38;;;6.05;;
13335;SDS011;6737;51.480;11.962;2023-10-13T10:00:54;13.93;;;6.18;;
13335;SDS011;6737;51.480;11.962;2023-10-13T10:03:32;9.85;;;5.72;;
13335;SDS011;6737;51.480;11.962;2023-10-13T10:06:20;9.68;;;5.72;;
13335;SDS011;6737;51.480;11.962;2023-10-13T10:09:03;8.60;;;6.03;;
13335;SDS011;6737;51.480;11.962;2023-10-13T10:11:57;9.80;;;6.00;;
13335;SDS011;6737;51.480;11.962;2023-10-13T10:17:56;10.30;;;5.80;;
13335;SDS011;6737;51.480;11.962;2023-10-13T10:20:34;10.13;;;6.00;;
13335;SDS011;6737;51.480;11.962;2023-10-13T10:23:09;11.43;;;5.82;;
13335;SDS011;6737;51.480;11.962;2023-10-13T10:25:47;10.98;;;5.63;;
13335;SDS011;6737;51.480;11.962;2023-10-13T10:28:17;7.38;;;5.43;;
13335;SDS011;6737;51.480;11.962;2023-10-13T10:30:45;11.02;;;5.68;;
13335;SDS011;6737;51.480;11.962;2023-10-13T10:33:11;9.88;;;5.43;;
13335;SDS011;6737;51.480;11.962;2023-10-13T10:35:42;9.15;;;5.40;;
13335;SDS011;6737;51.480;11.962;2023-10-13T10:38:18;12.00;;;5.50;;
13335;SDS011;6737;51.480;11.962;2023-10-13T10:40:52;10.00;;;5.40;;
13335;SDS011;6737;51.480;11.962;2023-10-13T10:43:28;9.15;;;5.32;;
13335;SDS011;6737;51.480;11.962;2023-10-13T10:46:08;12.10;;;5.32;;
13335;SDS011;6737;51.480;11.962;2023-10-13T10:48:36;8.23;;;5.22;;
13335;SDS011;6737;51.480;11.962;2023-10-13T10:51:11;8.52;;;5.50;;
13335;SDS011;6737;51.480;11.962;2023-10-13T10:53:50;9.55;;;5.20;;
13335;SDS011;6737;51.480;11.962;2023-10-13T10:56:18;10.57;;;5.75;;
13335;SDS011;6737;51.480;11.962;2023-10-13T10:58:52;9.93;;;5.40;;
13335;SDS011;6737;51.480;11.962;2023-10-13T11:04:07;11.98;;;5.63;;
13335;SDS011;6737;51.480;11.962;2023-10-13T11:06:35;15.00;;;5.95;;
13335;SDS011;6737;51.480;11.962;2023-10-13T11:09:08;10.80;;;5.68;;
13335;SDS011;6737;51.480;11.962;2023-10-13T11:11:52;10.70;;;5.60;;
13335;SDS011;6737;51.480;11.962;2023-10-13T11:16:50;13.18;;;5.22;;
13335;SDS011;6737;51.480;11.962;2023-10-13T11:19:20;10.15;;;5.47;;
13335;SDS011;6737;51.480;11.962;2023-10-13T11:22:09;12.43;;;5.22;;
13335;SDS011;6737;51.480;11.962;2023-10-13T11:25:04;14.38;;;5.50;;
13335;SDS011;6737;51.480;11.962;2023-10-13T11:27:40;13.48;;;4.88;;
13335;SDS011;6737;51.480;11.962;2023-10-13T11:30:19;9.48;;;5.60;;
13335;SDS011;6737;51.480;11.962;2023-10-13T11:32:56;10.20;;;5.97;;
13335;SDS011;6737;51.480;11.962;2023-10-13T11:35:23;12.30;;;5.38;;
13335;SDS011;6737;51.480;11.962;2023-10-13T11:37:50;11.50;;;5.57;;
13335;SDS011;6737;51.480;11.962;2023-10-13T11:40:34;11.93;;;5.43;;
13335;SDS011;6737;51.480;11.962;2023-10-13T11:43:11;12.88;;;5.78;;
13335;SDS011;6737;51.480;11.962;2023-10-13T11:45:41;10.93;;;5.28;;
13335;SDS011;6737;51.480;11.962;2023-10-13T11:48:25;10.32;;;5.40;;
13335;SDS011;6737;51.480;11.962;2023-10-13T11:51:04;14.57;;;5.60;;
13335;SDS011;6737;51.480;11.962;2023-10-13T11:53:43;11.98;;;5.32;;
13335;SDS011;6737;51.480;11.962;2023-10-13T11:56:17;11.57;;;5.10;;
13335;SDS011;6737;51.480;11.962;2023-10-13T11:58:48;12.68;;;5.25;;
13335;SDS011;6737;51.480;11.962;2023-10-13T12:01:14;11.43;;;4.90;;
13335;SDS011;6737;51.480;11.962;2023-10-13T12:03:44;12.57;;;5.00;;
13335;SDS011;6737;51.480;11.962;2023-10-13T12:06:34;12.48;;;5.20;;
13335;SDS011;6737;51.480;11.962;2023-10-13T12:09:01;14.88;;;5.80;;
13335;SDS011;6737;51.480;11.962;2023-10-13T12:11:42;11.15;;;4.90;;
13335;SDS011;6737;51.480;11.962;2023-10-13T12:14:13;7.55;;;4.55;;
13335;SDS011;6737;51.480;11.962;2023-10-13T12:16:51;12.68;;;5.05;;
13335;SDS011;6737;51.480;11.962;2023-10-13T12:19:17;12.63;;;4.93;;
13335;SDS011;6737;51.480;11.962;2023-10-13T12:21:49;11.90;;;4.72;;
13335;SDS011;6737;51.480;11.962;2023-10-13T12:24:20;12.93;;;4.88;;
13335;SDS011;6737;51.480;11.962;2023-10-13T12:27:04;12.70;;;5.20;;
13335;SDS011;6737;51.480;11.962;2023-10-13T12:29:53;13.32;;;5.20;;
13335;SDS011;6737;51.480;11.962;2023-10-13T12:32:21;13.23;;;4.90;;
13335;SDS011;6737;51.480;11.962;2023-10-13T12:34:50;8.27;;;5.28;;
13335;SDS011;6737;51.480;11.962;2023-10-13T12:37:42;16.52;;;4.78;;
13335;SDS011;6737;51.480;11.962;2023-10-13T12:40:09;8.82;;;5.07;;
13335;SDS011;6737;51.480;11.962;2023-10-13T12:42:57;9.93;;;4.88;;
13335;SDS011;6737;51.480;11.962;2023-10-13T12:45:42;10.27;;;5.32;;
13335;SDS011;6737;51.480;11.962;2023-10-13T12:48:27;11.15;;;5.03;;
13335;SDS011;6737;51.480;11.962;2023-10-13T12:51:13;12.68;;;5.57;;
13335;SDS011;6737;51.480;11.962;2023-10-13T12:53:46;11.43;;;4.72;;
13335;SDS011;6737;51.480;11.962;2023-10-13T12:56:14;12.57;;;5.20;;
13335;SDS011;6737;51.480;11.962;2023-10-13T12:58:41;9.68;;;4.70;;
13335;SDS011;6737;51.480;11.962;2023-10-13T13:01:17;9.55;;;4.88;;
13335;SDS011;6737;51.480;11.962;2023-10-13T13:03:48;16.60;;;5.43;;
13335;SDS011;6737;51.480;11.962;2023-10-13T13:06:18;10.25;;;5.10;;
13335;SDS011;6737;51.480;11.962;2023-10-13T13:08:56;10.15;;;5.15;;
13335;SDS011;6737;51.480;11.962;2023-10-13T13:11:24;13.45;;;5.22;;
13335;SDS011;6737;51.480;11.962;2023-10-13T13:13:50;12.55;;;5.28;;
13335;SDS011;6737;51.480;11.962;2023-10-13T13:16:17;13.20;;;5.28;;
13335;SDS011;6737;51.480;11.962;2023-10-13T13:18:45;10.77;;;5.10;;
13335;SDS011;6737;51.480;11.962;2023-10-13T13:21:11;11.68;;;5.30;;
13335;SDS011;6737;51.480;11.962;2023-10-13T13:23:38;9.70;;;5.00;;
13335;SDS011;6737;51.480;11.962;2023-10-13T13:26:05;11.98;;;5.45;;
13335;SDS011;6737;51.480;11.962;2023-10-13T13:28:44;11.88;;;4.78;;
13335;SDS011;6737;51.480;11.962;2023-10-13T13:31:10;9.77;;;4.90;;
13335;SDS011;6737;51.480;11.962;2023-10-13T13:33:40;12.38;;;4.60;;
13335;SDS011;6737;51.480;11.962;2023-10-13T13:36:09;9.30;;;4.20;;
13335;SDS011;6737;51.480;11.962;2023-10-13T13:38:39;10.43;;;4.65;;
13335;SDS011;6737;51.480;11.962;2023-10-13T13:41:10;10.75;;;4.70;;
13335;SDS011;6737;51.480;11.962;2023-10-13T13:43:40;11.07;;;4.45;;
13335;SDS011;6737;51.480;11.962;2023-10-13T13:46:22;8.43;;;4.30;;
13335;SDS011;6737;51.480;11.962;2023-10-13T13:49:14;8.57;;;4.38;;
13335;SDS011;6737;51.480;11.962;2023-10-13T13:51:44;7.07;;;4.13;;
13335;SDS011;6737;51.480;11.962;2023-10-13T13:54:17;11.02;;;4.53;;
13335;SDS011;6737;51.480;11.962;2023-10-13T13:56:46;10.35;;;4.65;;
13335;SDS011;6737;51.480;11.962;2023-10-13T13:59:13;8.70;;;4.28;;
13335;SDS011;6737;51.480;11.962;2023-10-13T14:01:45;10.63;;;4.38;;
13335;SDS011;6737;51.480;11.962;2023-10-13T14:04:11;9.30;;;4.60;;
13335;SDS011;6737;51.480;11.962;2023-10-13T14:06:39;11.85;;;4.80;;
13335;SDS011;6737;51.480;11.962;2023-10-13T14:09:05;13.20;;;4.40;;
13335;SDS011;6737;51.480;11.962;2023-10-13T14:11:40;8.38;;;4.30;;
13335;SDS011;6737;51.480;11.962;2023-10-13T14:14:25;9.68;;;4.10;;
13335;SDS011;6737;51.480;11.962;2023-10-13T14:16:52;9.35;;;4.40;;
13335;SDS011;6737;51.480;11.962;2023-10-13T14:19:19;9.95;;;4.13;;
13335;SDS011;6737;51.480;11.962;2023-10-13T14:21:58;7.43;;;3.90;;
13335;SDS011;6737;51.480;11.962;2023-10-13T14:24:25;9.40;;;4.22;;
13335;SDS011;6737;51.480;11.962;2023-10-13T14:26:59;11.13;;;4.32;;
13335;SDS011;6737;51.480;11.962;2023-10-13T14:29:34;6.25;;;3.83;;
13335;SDS011;6737;51.480;11.962;2023-10-13T14:32:08;6.78;;;3.92;;
13335;SDS011;6737;51.480;11.962;2023-10-13T14:34:39;9.02;;;4.15;;
13335;SDS011;6737;51.480;11.962;2023-10-13T14:37:06;10.93;;;4.25;;
13335;SDS011;6737;51.480;11.962;2023-10-13T14:39:32;8.20;;;4.15;;
13335;SDS011;6737;51.480;11.962;2023-10-13T14:42:01;9.85;;;3.95;;
13335;SDS011;6737;51.480;11.962;2023-10-13T14:44:28;9.45;;;4.18;;
13335;SDS011;6737;51.480;11.962;2023-10-13T14:46:54;9.32;;;4.00;;
13335;SDS011;6737;51.480;11.962;2023-10-13T14:49:20;12.02;;;4.47;;
13335;SDS011;6737;51.480;11.962;2023-10-13T14:51:46;9.90;;;4.32;;
13335;SDS011;6737;51.480;11.962;2023-10-13T14:54:15;7.70;;;3.90;;
13335;SDS011;6737;51.480;11.962;2023-10-13T14:56:41;8.90;;;4.30;;
13335;SDS011;6737;51.480;11.962;2023-10-13T14:59:08;11.57;;;4.05;;
13335;SDS011;6737;51.480;11.962;2023-10-13T15:01:42;10.63;;;3.97;;
13335;SDS011;6737;51.480;11.962;2023-10-13T15:04:08;7.72;;;3.90;;
13335;SDS011;6737;51.480;11.962;2023-10-13T15:06:34;11.25;;;3.95;;
13335;SDS011;6737;51.480;11.962;2023-10-13T15:09:00;10.02;;;4.05;;
13335;SDS011;6737;51.480;11.962;2023-10-13T15:11:28;10.10;;;4.22;;
13335;SDS011;6737;51.480;11.962;2023-10-13T15:14:03;8.27;;;3.70;;
13335;SDS011;6737;51.480;11.962;2023-10-13T15:16:31;6.82;;;3.72;;
13335;SDS011;6737;51.480;11.962;2023-10-13T15:18:59;11.18;;;4.15;;
13335;SDS011;6737;51.480;11.962;2023-10-13T15:21:26;9.43;;;4.43;;
13335;SDS011;6737;51.480;11.962;2023-10-13T15:24:00;9.07;;;3.90;;
13335;SDS011;6737;51.480;11.962;2023-10-13T15:26:41;8.02;;;4.18;;
13335;SDS011;6737;51.480;11.962;2023-10-13T15:29:13;8.20;;;4.10;;
13335;SDS011;6737;51.480;11.962;2023-10-13T15:31:44;8.95;;;4.60;;
13335;SDS011;6737;51.480;11.962;2023-10-13T15:34:26;10.32;;;4.28;;
13335;SDS011;6737;51.480;11.962;2023-10-13T15:36:53;9.23;;;4.30;;
13335;SDS011;6737;51.480;11.962;2023-10-13T15:39:24;13.82;;;5.10;;
13335;SDS011;6737;51.480;11.962;2023-10-13T15:41:56;8.95;;;4.45;;
13335;SDS011;6737;51.480;11.962;2023-10-13T15:44:27;8.52;;;4.15;;